createdAt,value
2024-04-11T00:00:51.299Z,61.60
2024-04-11T00:03:18.947Z,61.60
2024-04-11T00:05:46.702Z,61.60
2024-04-11T00:08:14.147Z,61.60
2024-04-11T00:10:41.547Z,61.50
2024-04-11T00:13:09.013Z,61.70
2024-04-11T00:15:36.411Z,61.80
2024-04-11T00:18:04.277Z,61.90
2024-04-11T00:20:31.903Z,61.90
2024-04-11T00:22:59.332Z,61.90
2024-04-11T00:25:26.794Z,61.90
2024-04-11T00:27:55.018Z,62.10
2024-04-11T00:30:22.434Z,62.20
2024-04-11T00:32:50.766Z,62.20
2024-04-11T00:35:19.949Z,62.20
2024-04-11T00:37:50.212Z,62.20
2024-04-11T00:40:17.661Z,62.20
2024-04-11T00:42:45.278Z,62.20
2024-04-11T00:45:13.406Z,62.20
2024-04-11T00:47:42.414Z,62.30
2024-04-11T00:50:10.131Z,62.30
2024-04-11T00:52:38.166Z,62.40
2024-04-11T00:55:06.614Z,62.50
2024-04-11T00:57:36.694Z,62.50
2024-04-11T01:00:05.638Z,62.50
2024-04-11T01:02:33.347Z,62.60
2024-04-11T01:05:02.053Z,62.50
2024-04-11T01:07:29.577Z,62.60
2024-04-11T01:09:57.019Z,62.60
2024-04-11T01:12:25.264Z,62.60
2024-04-11T01:14:52.747Z,62.70
2024-04-11T01:17:21.821Z,62.70
2024-04-11T01:19:49.921Z,62.60
2024-04-11T01:22:20.094Z,62.60
2024-04-11T01:24:48.214Z,62.60
2024-04-11T01:27:16.305Z,62.50
2024-04-11T01:29:44.134Z,62.60
2024-04-11T01:32:11.695Z,62.70
2024-04-11T01:34:39.785Z,62.70
2024-04-11T01:37:07.585Z,62.70
2024-04-11T01:39:34.992Z,62.70
2024-04-11T01:42:02.589Z,62.60
2024-04-11T01:44:32.431Z,62.80
2024-04-11T01:46:59.959Z,62.60
2024-04-11T01:49:27.828Z,62.60
2024-04-11T01:51:55.248Z,62.70
2024-04-11T01:54:23.238Z,62.70
2024-04-11T01:56:51.127Z,62.70
2024-04-11T01:59:19.398Z,62.80
2024-04-11T02:01:46.907Z,62.80
2024-04-11T02:04:14.550Z,62.70
2024-04-11T02:06:41.983Z,62.70
2024-04-11T02:09:17.202Z,62.80
2024-04-11T02:11:48.407Z,62.80
2024-04-11T02:14:16.226Z,62.70
2024-04-11T02:16:43.723Z,62.60
2024-04-11T02:19:13.622Z,62.60
2024-04-11T02:21:45.161Z,62.80
2024-04-11T02:24:19.065Z,62.70
2024-04-11T02:26:50.199Z,62.70
2024-04-11T02:29:18.477Z,62.70
2024-04-11T02:31:47.950Z,62.60
2024-04-11T02:34:15.711Z,62.70
2024-04-11T02:36:43.289Z,62.80
2024-04-11T02:39:14.255Z,62.80
2024-04-11T02:41:43.569Z,62.80
2024-04-11T02:44:11.120Z,62.80
2024-04-11T02:46:40.859Z,62.80
2024-04-11T02:49:08.836Z,62.80
2024-04-11T02:51:37.091Z,62.80
2024-04-11T02:54:09.252Z,62.70
2024-04-11T02:56:38.419Z,62.80
2024-04-11T02:59:05.989Z,62.80
2024-04-11T03:01:33.868Z,62.80
2024-04-11T03:04:03.887Z,62.90
2024-04-11T03:06:35.101Z,62.80
2024-04-11T03:09:06.107Z,62.90
2024-04-11T03:11:36.329Z,63.00
2024-04-11T03:14:03.987Z,62.90
2024-04-11T03:16:32.365Z,62.80
2024-04-11T03:19:00.877Z,63.00
2024-04-11T03:21:28.559Z,62.90
2024-04-11T03:23:56.488Z,63.00
2024-04-11T03:26:24.142Z,63.10
2024-04-11T03:28:51.701Z,63.00
2024-04-11T03:31:20.481Z,63.10
2024-04-11T03:33:48.459Z,63.20
2024-04-11T03:36:16.173Z,63.20
2024-04-11T03:38:44.111Z,63.20
2024-04-11T03:41:12.297Z,63.20
2024-04-11T03:43:40.846Z,63.30
2024-04-11T03:46:10.425Z,63.20
2024-04-11T03:48:38.353Z,63.30
2024-04-11T03:51:14.720Z,63.40
2024-04-11T03:53:43.643Z,63.30
2024-04-11T03:56:11.394Z,63.30
2024-04-11T03:58:38.835Z,63.30
2024-04-11T04:01:19.866Z,63.20
2024-04-11T04:03:48.615Z,63.30
2024-04-11T04:06:16.981Z,63.30
2024-04-11T04:08:48.994Z,63.40
2024-04-11T04:11:17.631Z,63.60
2024-04-11T04:13:45.310Z,63.40
2024-04-11T04:16:16.107Z,63.50
2024-04-11T04:18:47.433Z,63.50
2024-04-11T04:21:20.128Z,63.50
2024-04-11T04:23:50.282Z,63.60
2024-04-11T04:26:20.892Z,63.60
2024-04-11T04:28:49.578Z,63.70
2024-04-11T04:31:27.708Z,63.60
2024-04-11T04:33:56.223Z,63.70
2024-04-11T04:36:27.168Z,63.70
2024-04-11T04:38:57.957Z,63.60
2024-04-11T04:41:29.628Z,63.70
2024-04-11T04:43:58.170Z,63.70
2024-04-11T04:46:31.531Z,63.70
2024-04-11T04:49:01.967Z,63.70
2024-04-11T04:51:30.132Z,63.70
2024-04-11T04:53:58.486Z,63.70
2024-04-11T04:56:29.397Z,63.70
2024-04-11T04:58:56.860Z,63.60
2024-04-11T05:01:25.421Z,63.60
2024-04-11T05:03:53.308Z,63.70
2024-04-11T05:06:21.517Z,63.80
2024-04-11T05:08:49.537Z,63.80
2024-04-11T05:11:23.090Z,63.80
2024-04-11T05:13:51.693Z,63.90
2024-04-11T05:16:22.591Z,63.80
2024-04-11T05:18:51.916Z,64.00
2024-04-11T05:21:26.385Z,64.00
2024-04-11T05:23:56.091Z,64.10
2024-04-11T05:26:27.381Z,64.10
2024-04-11T05:28:56.559Z,64.00
2024-04-11T05:31:27.720Z,64.00
2024-04-11T05:33:57.073Z,64.00
2024-04-11T05:36:30.887Z,64.00
2024-04-11T05:38:59.113Z,64.00
2024-04-11T05:41:30.708Z,64.00
2024-04-11T05:44:00.130Z,64.00
2024-04-11T05:46:29.281Z,63.90
2024-04-11T05:48:57.087Z,63.80
2024-04-11T05:51:24.735Z,63.80
2024-04-11T05:53:53.299Z,63.80
2024-04-11T05:56:20.947Z,63.90
2024-04-11T05:58:51.224Z,63.80
2024-04-11T06:01:19.371Z,63.90
2024-04-11T06:03:52.515Z,63.80
2024-04-11T06:06:23.027Z,63.80
2024-04-11T06:08:52.360Z,63.70
2024-04-11T06:11:21.088Z,63.70
2024-04-11T06:13:48.778Z,63.60
2024-04-11T06:16:17.034Z,63.70
2024-04-11T06:18:49.770Z,63.70
2024-04-11T06:21:23.763Z,63.70
2024-04-11T06:23:51.406Z,63.50
2024-04-11T06:26:18.916Z,63.50
2024-04-11T06:28:47.041Z,63.50
2024-04-11T06:31:16.822Z,63.50
2024-04-11T06:33:44.984Z,63.60
2024-04-11T06:36:13.224Z,63.50
2024-04-11T06:38:41.383Z,63.40
2024-04-11T06:41:10.623Z,63.40
2024-04-11T06:43:43.056Z,63.50
2024-04-11T06:46:12.318Z,63.40
2024-04-11T06:48:40.702Z,63.50
2024-04-11T06:51:11.035Z,63.50
2024-04-11T06:53:40.758Z,63.60
2024-04-11T06:56:09.945Z,63.50
2024-04-11T06:58:38.652Z,63.60
2024-04-11T07:01:10.731Z,63.70
2024-04-11T07:03:42.731Z,63.60
2024-04-11T07:06:22.767Z,62.50
2024-04-11T07:08:51.110Z,62.50
2024-04-11T07:11:24.830Z,62.30
2024-04-11T07:13:55.198Z,62.30
2024-04-11T07:16:27.448Z,62.50
2024-04-11T07:18:59.187Z,62.30
2024-04-11T07:21:27.991Z,62.50
2024-04-11T07:23:56.104Z,62.50
2024-04-11T07:26:23.910Z,62.40
2024-04-11T07:28:51.892Z,62.30
2024-04-11T07:31:19.355Z,62.00
2024-04-11T07:33:50.390Z,62.20
2024-04-11T07:36:25.152Z,61.90
2024-04-11T07:38:53.858Z,61.80
2024-04-11T07:41:21.792Z,61.90
2024-04-11T07:43:52.983Z,61.80
2024-04-11T07:46:20.937Z,61.70
2024-04-11T07:48:49.105Z,61.70
2024-04-11T07:51:19.707Z,61.40
2024-04-11T07:53:48.631Z,61.10
2024-04-11T07:56:24.526Z,61.30
2024-04-11T07:58:57.150Z,61.20
2024-04-11T08:01:32.301Z,60.80
2024-04-11T08:04:03.954Z,60.40
2024-04-11T08:06:35.690Z,60.20
2024-04-11T08:09:08.005Z,60.40
2024-04-11T08:11:36.218Z,59.60
2024-04-11T08:14:07.083Z,59.00
2024-04-11T08:16:35.002Z,58.60
2024-04-11T08:19:04.100Z,58.90
2024-04-11T08:21:32.389Z,58.80
2024-04-11T08:24:03.124Z,58.80
2024-04-11T08:26:30.840Z,58.60
2024-04-11T08:28:58.249Z,58.60
2024-04-11T08:31:30.927Z,58.40
2024-04-11T08:34:01.946Z,58.40
2024-04-11T08:36:30.995Z,58.60
2024-04-11T08:38:59.649Z,57.50
2024-04-11T08:41:27.566Z,57.30
2024-04-11T08:43:57.990Z,57.40
2024-04-11T08:46:29.091Z,57.30
2024-04-11T08:48:56.695Z,57.70
2024-04-11T08:51:25.187Z,58.00
2024-04-11T08:54:03.701Z,58.00
2024-04-11T08:56:33.041Z,57.70
2024-04-11T08:59:01.388Z,58.00
2024-04-11T09:01:30.932Z,58.10
2024-04-11T09:03:59.136Z,58.10
2024-04-11T09:06:29.998Z,58.10
2024-04-11T09:09:01.486Z,58.10
2024-04-11T09:11:29.495Z,57.80
2024-04-11T09:14:00.716Z,57.90
2024-04-11T09:16:29.573Z,57.90
2024-04-11T09:19:07.195Z,57.70
2024-04-11T09:21:34.864Z,57.70
2024-04-11T09:24:02.943Z,57.50
2024-04-11T09:26:30.560Z,57.70
2024-04-11T09:28:58.472Z,57.40
2024-04-11T09:31:26.193Z,57.60
2024-04-11T09:33:58.672Z,57.50
2024-04-11T09:36:29.657Z,57.70
2024-04-11T09:39:13.774Z,57.90
2024-04-11T09:41:51.875Z,58.00
2024-04-11T09:44:19.487Z,57.80
2024-04-11T09:46:48.139Z,57.90
2024-04-11T09:49:15.702Z,57.80
2024-04-11T09:51:43.191Z,57.70
2024-04-11T09:54:15.350Z,57.60
2024-04-11T09:56:47.942Z,57.70
2024-04-11T09:59:17.336Z,57.60
2024-04-11T10:01:49.054Z,57.10
2024-04-11T10:04:37.385Z,57.30
2024-04-11T10:07:09.581Z,57.20
2024-04-11T10:09:37.408Z,57.10
2024-04-11T10:12:08.480Z,57.10
2024-04-11T10:14:36.957Z,57.20
2024-04-11T10:17:06.849Z,57.30
2024-04-11T10:19:40.250Z,57.30
2024-04-11T10:22:08.421Z,57.30
2024-04-11T10:24:39.623Z,57.40
2024-04-11T10:27:13.406Z,57.40
2024-04-11T10:29:45.558Z,57.50
2024-04-11T10:32:24.753Z,57.40
2024-04-11T10:34:58.249Z,57.30
2024-04-11T10:37:31.259Z,57.30
2024-04-11T10:39:59.769Z,57.20
2024-04-11T10:42:53.305Z,57.20
2024-04-11T10:45:27.621Z,57.00
2024-04-11T10:47:58.422Z,57.20
2024-04-11T10:50:28.627Z,57.50
2024-04-11T10:52:58.668Z,57.30
2024-04-11T10:55:37.556Z,57.00
2024-04-11T10:58:14.885Z,57.20
2024-04-11T11:01:01.790Z,56.90
2024-04-11T11:03:49.614Z,57.20
2024-04-11T11:06:37.335Z,57.00
2024-04-11T11:09:12.860Z,56.70
2024-04-11T11:11:45.258Z,57.00
2024-04-11T11:14:21.710Z,56.90
2024-04-11T11:16:50.319Z,56.70
2024-04-11T11:19:20.368Z,56.80
2024-04-11T11:21:52.093Z,56.80
2024-04-11T11:24:25.630Z,56.30
2024-04-11T11:26:57.866Z,56.50
2024-04-11T11:29:29.516Z,56.60
2024-04-11T11:32:05.461Z,56.80
2024-04-11T11:34:37.226Z,56.30
2024-04-11T11:37:05.367Z,55.90
2024-04-11T11:39:37.927Z,56.10
2024-04-11T11:42:11.718Z,56.50
2024-04-11T11:44:59.061Z,56.40
2024-04-11T11:47:36.896Z,56.20
2024-04-11T11:50:09.201Z,56.30
2024-04-11T11:52:44.499Z,56.20
2024-04-11T11:55:20.423Z,56.30
2024-04-11T11:58:00.615Z,56.50
2024-04-11T12:00:34.904Z,56.30
2024-04-11T12:03:21.234Z,56.10
2024-04-11T12:05:55.140Z,55.60
2024-04-11T12:08:25.892Z,56.00
2024-04-11T12:10:59.487Z,56.00
2024-04-11T12:13:36.439Z,56.10
2024-04-11T12:16:07.131Z,56.40
2024-04-11T12:18:34.845Z,56.00
2024-04-11T12:21:04.316Z,56.40
2024-04-11T12:23:36.693Z,56.30
2024-04-11T12:26:05.303Z,56.00
2024-04-11T12:28:33.566Z,56.00
2024-04-11T12:31:10.340Z,56.10
2024-04-11T12:33:46.112Z,56.10
2024-04-11T12:36:52.911Z,56.10
2024-04-11T12:39:23.697Z,56.10
2024-04-11T12:41:51.909Z,55.90
2024-04-11T12:44:27.000Z,56.10
2024-04-11T12:46:55.165Z,56.20
2024-04-11T12:49:28.300Z,55.90
2024-04-11T12:51:59.242Z,56.00
2024-04-11T12:54:32.708Z,55.80
2024-04-11T12:57:06.977Z,55.80
2024-04-11T12:59:38.709Z,56.00
2024-04-11T13:02:10.202Z,55.90
2024-04-11T13:04:39.235Z,56.00
2024-04-11T13:07:14.674Z,56.10
2024-04-11T13:09:56.595Z,56.20
2024-04-11T13:12:32.031Z,56.30
2024-04-11T13:15:12.272Z,56.20
2024-04-11T13:17:44.108Z,56.30
2024-04-11T13:20:17.131Z,56.30
2024-04-11T13:22:50.726Z,56.50
2024-04-11T13:25:22.924Z,56.40
2024-04-11T13:27:54.790Z,56.30
2024-04-11T13:30:23.261Z,56.40
2024-04-11T13:32:57.712Z,56.50
2024-04-11T13:35:39.216Z,56.50
2024-04-11T13:38:19.111Z,56.50
2024-04-11T13:41:06.670Z,56.40
2024-04-11T13:43:38.666Z,56.40
2024-04-11T13:46:10.184Z,56.50
2024-04-11T13:48:38.228Z,56.50
2024-04-11T13:51:16.779Z,56.30
2024-04-11T13:53:45.946Z,56.30
2024-04-11T13:56:15.364Z,56.40
2024-04-11T13:58:50.251Z,56.30
2024-04-11T14:01:28.851Z,56.20
2024-04-11T14:03:57.113Z,56.20
2024-04-11T14:06:40.827Z,56.20
2024-04-11T14:09:11.764Z,56.30
2024-04-11T14:11:39.579Z,56.30
2024-04-11T14:14:06.969Z,56.40
2024-04-11T14:16:53.707Z,56.30
2024-04-11T14:19:36.992Z,56.20
2024-04-11T14:22:23.511Z,56.20
2024-04-11T14:25:00.453Z,56.10
2024-04-11T14:27:31.242Z,56.10
2024-04-11T14:30:04.825Z,56.10
2024-04-11T14:32:51.589Z,56.10
2024-04-11T14:35:38.391Z,56.10
2024-04-11T14:38:08.995Z,56.00
2024-04-11T14:40:40.736Z,56.10
2024-04-11T14:43:12.287Z,56.00
2024-04-11T14:45:43.491Z,56.00
2024-04-11T14:48:20.679Z,56.00
2024-04-11T14:50:57.470Z,55.90
2024-04-11T14:53:26.191Z,55.70
2024-04-11T14:55:57.995Z,55.60
2024-04-11T14:58:32.647Z,55.50
2024-04-11T15:01:16.260Z,55.50
2024-04-11T15:03:47.252Z,55.40
2024-04-11T15:06:17.811Z,55.30
2024-04-11T15:08:50.104Z,55.20
2024-04-11T15:11:24.563Z,55.10
2024-04-11T15:13:55.118Z,55.00
2024-04-11T15:16:29.130Z,55.10
2024-04-11T15:18:56.632Z,55.00
2024-04-11T15:21:36.950Z,54.90
2024-04-11T15:24:08.204Z,55.00
2024-04-11T15:26:36.551Z,55.00
2024-04-11T15:29:13.630Z,54.80
2024-04-11T15:31:43.131Z,54.80
2024-04-11T15:34:10.643Z,54.60
2024-04-11T15:36:54.119Z,54.70
2024-04-11T15:39:30.230Z,54.80
2024-04-11T15:42:02.140Z,54.70
2024-04-11T15:44:38.876Z,54.70
2024-04-11T15:47:06.873Z,54.50
2024-04-11T15:49:34.592Z,54.60
2024-04-11T15:52:08.531Z,54.30
2024-04-11T15:54:56.516Z,54.50
2024-04-11T15:57:32.361Z,54.40
2024-04-11T16:00:12.119Z,54.60
2024-04-11T16:02:46.310Z,54.40
2024-04-11T16:05:26.295Z,54.30
2024-04-11T16:08:23.519Z,54.10
2024-04-11T16:11:02.055Z,54.10
2024-04-11T16:13:38.770Z,54.00
2024-04-11T16:16:07.131Z,53.90
2024-04-11T16:18:39.090Z,54.00
2024-04-11T16:21:15.238Z,54.00
2024-04-11T16:23:56.691Z,54.00
2024-04-11T16:26:28.964Z,54.00
2024-04-11T16:28:57.359Z,53.80
2024-04-11T16:31:27.979Z,53.90
2024-04-11T16:33:59.308Z,53.80
2024-04-11T16:36:30.356Z,53.80
2024-04-11T16:38:58.707Z,53.70
2024-04-11T16:41:41.579Z,53.60
2024-04-11T16:44:13.200Z,53.60
2024-04-11T16:46:52.816Z,53.60
2024-04-11T16:49:49.966Z,53.60
2024-04-11T16:52:18.277Z,54.20
2024-04-11T16:54:48.559Z,53.60
2024-04-11T16:57:16.023Z,53.60
2024-04-11T16:59:46.762Z,53.70
2024-04-11T17:02:23.289Z,53.60
2024-04-11T17:04:51.020Z,53.80
2024-04-11T17:07:28.821Z,54.30
2024-04-11T17:09:56.418Z,53.80
2024-04-11T17:12:24.503Z,53.70
2024-04-11T17:14:55.892Z,53.80
2024-04-11T17:17:30.749Z,53.70
2024-04-11T17:20:16.851Z,53.70
2024-04-11T17:23:03.051Z,53.70
2024-04-11T17:25:34.603Z,53.80
2024-04-11T17:28:08.668Z,53.80
2024-04-11T17:30:39.912Z,53.80
2024-04-11T17:33:43.145Z,53.90
2024-04-11T17:36:23.453Z,53.90
2024-04-11T17:39:06.340Z,53.90
2024-04-11T17:41:39.926Z,54.00
2024-04-11T17:44:13.856Z,53.90
2024-04-11T17:47:13.990Z,54.10
2024-04-11T17:49:47.406Z,54.10
2024-04-11T17:52:33.688Z,54.70
2024-04-11T17:55:07.155Z,54.20
2024-04-11T17:57:34.866Z,54.10
2024-04-11T18:00:05.801Z,54.10
2024-04-11T18:02:36.658Z,54.10
2024-04-11T18:05:09.618Z,54.10
2024-04-11T18:07:39.118Z,54.10
2024-04-11T18:10:09.954Z,54.10
2024-04-11T18:12:37.684Z,54.10
2024-04-11T18:15:05.538Z,54.10
2024-04-11T18:17:35.364Z,54.10
2024-04-11T18:20:12.103Z,54.10
2024-04-11T18:22:43.063Z,54.10
2024-04-11T18:25:11.152Z,54.10
2024-04-11T18:27:41.675Z,54.10
2024-04-11T18:30:29.891Z,54.20
2024-04-11T18:32:59.879Z,54.20
2024-04-11T18:35:27.833Z,54.10
2024-04-11T18:38:01.557Z,54.20
2024-04-11T18:40:29.137Z,54.30
2024-04-11T18:42:59.771Z,54.40
2024-04-11T18:45:36.282Z,55.00
2024-04-11T18:48:13.720Z,54.50
2024-04-11T18:50:41.320Z,54.60
2024-04-11T18:53:09.094Z,54.60
2024-04-11T18:55:50.840Z,54.60
2024-04-11T18:58:18.708Z,54.70
2024-04-11T19:00:46.518Z,54.70
2024-04-11T19:03:18.165Z,54.60
2024-04-11T19:05:49.421Z,54.70
2024-04-11T19:08:18.879Z,54.80
2024-04-11T19:11:14.704Z,55.00
2024-04-11T19:13:45.487Z,55.00
2024-04-11T19:16:14.004Z,55.00
2024-04-11T19:18:50.364Z,55.10
2024-04-11T19:21:23.476Z,55.10
2024-04-11T19:24:16.398Z,55.20
2024-04-11T19:26:45.449Z,55.30
2024-04-11T19:29:23.917Z,55.40
2024-04-11T19:31:52.893Z,55.40
2024-04-11T19:34:26.213Z,55.40
2024-04-11T19:36:58.938Z,55.40
2024-04-11T19:39:30.108Z,55.40
2024-04-11T19:41:57.890Z,55.70
2024-04-11T19:44:27.469Z,55.80
2024-04-11T19:46:59.968Z,55.70
2024-04-11T19:49:29.021Z,55.70
2024-04-11T19:51:59.243Z,55.80
2024-04-11T19:54:27.259Z,55.80
2024-04-11T19:57:03.787Z,55.80
2024-04-11T19:59:33.831Z,56.00
2024-04-11T20:02:12.655Z,56.10
2024-04-11T20:04:43.378Z,56.10
2024-04-11T20:07:10.910Z,56.10
2024-04-11T20:09:39.903Z,56.10
2024-04-11T20:12:14.943Z,56.10
2024-04-11T20:14:46.503Z,56.10
2024-04-11T20:17:18.662Z,56.10
2024-04-11T20:19:50.482Z,56.20
2024-04-11T20:22:20.634Z,56.20
2024-04-11T20:24:54.762Z,56.20
2024-04-11T20:27:35.916Z,56.10
2024-04-11T20:30:15.664Z,56.30
2024-04-11T20:32:47.267Z,56.30
2024-04-11T20:35:42.570Z,56.30
2024-04-11T20:38:22.895Z,56.50
2024-04-11T20:41:05.254Z,56.50
2024-04-11T20:43:41.222Z,56.20
2024-04-11T20:46:14.451Z,56.30
2024-04-11T20:48:56.828Z,56.30
2024-04-11T20:51:50.601Z,56.10
2024-04-11T20:54:36.835Z,56.30
2024-04-11T20:57:22.875Z,56.20
2024-04-11T21:00:09.201Z,56.20
2024-04-11T21:02:55.298Z,56.30
2024-04-11T21:05:41.550Z,56.50
2024-04-11T21:08:27.774Z,56.50
2024-04-11T21:11:14.078Z,56.60
2024-04-11T21:14:00.490Z,56.60
2024-04-11T21:16:46.696Z,56.30
2024-04-11T21:19:32.924Z,56.20
2024-04-11T21:22:18.983Z,56.20
2024-04-11T21:25:04.982Z,56.30
2024-04-11T21:27:50.950Z,56.40
2024-04-11T21:30:37.245Z,56.50
2024-04-11T21:33:23.482Z,56.50
2024-04-11T21:35:54.807Z,56.40
2024-04-11T21:38:24.486Z,56.10
2024-04-11T21:40:52.080Z,56.20
2024-04-11T21:43:26.510Z,56.30
2024-04-11T21:45:59.102Z,56.90
2024-04-11T21:48:30.505Z,56.40
2024-04-11T21:51:00.829Z,56.50
2024-04-11T21:53:34.593Z,56.50
2024-04-11T21:56:02.885Z,56.60
2024-04-11T21:58:31.140Z,56.60
2024-04-11T22:01:07.907Z,57.10
2024-04-11T22:03:35.741Z,56.50
2024-04-11T22:06:03.268Z,56.70
2024-04-11T22:08:36.706Z,56.80
2024-04-11T22:11:07.235Z,56.60
2024-04-11T22:13:38.146Z,56.40
2024-04-11T22:16:06.388Z,56.40
2024-04-11T22:18:34.735Z,56.40
2024-04-11T22:21:13.523Z,56.40
2024-04-11T22:23:46.388Z,56.50
2024-04-11T22:26:20.902Z,56.50
2024-04-11T22:28:48.457Z,56.70
2024-04-11T22:31:18.851Z,56.70
2024-04-11T22:33:51.480Z,56.80
2024-04-11T22:36:29.355Z,56.80
2024-04-11T22:39:02.726Z,57.00
2024-04-11T22:41:33.798Z,57.10
2024-04-11T22:44:01.368Z,57.00
2024-04-11T22:46:35.797Z,57.00
2024-04-11T22:49:16.294Z,56.70
2024-04-11T22:51:46.133Z,56.70
2024-04-11T22:54:24.575Z,56.80
2024-04-11T22:56:52.422Z,56.90
2024-04-11T22:59:36.765Z,57.00
2024-04-11T23:02:12.420Z,56.90
2024-04-11T23:05:01.371Z,57.60
2024-04-11T23:07:35.772Z,57.10
2024-04-11T23:10:04.817Z,57.10
2024-04-11T23:12:38.060Z,57.00
2024-04-11T23:15:15.165Z,57.00
2024-04-11T23:18:03.752Z,56.70
2024-04-11T23:20:31.397Z,56.80
2024-04-11T23:23:18.358Z,56.80
2024-04-11T23:25:53.629Z,56.90
2024-04-11T23:28:28.756Z,57.00
2024-04-11T23:30:57.339Z,56.90
2024-04-11T23:33:30.475Z,56.70
2024-04-11T23:36:06.452Z,56.60
2024-04-11T23:38:37.678Z,56.50
2024-04-11T23:41:09.396Z,56.50
2024-04-11T23:43:47.655Z,56.60
2024-04-11T23:46:29.568Z,56.80
2024-04-11T23:49:08.044Z,56.80
2024-04-11T23:51:48.140Z,56.90
2024-04-11T23:54:22.160Z,56.80
2024-04-11T23:57:02.252Z,56.80
2024-04-11T23:59:40.354Z,57.50
